createdAt,value
2018-10-21T00:00:18.856Z,988.52
2018-10-21T00:01:18.767Z,988.60
2018-10-21T00:02:18.683Z,988.60
2018-10-21T00:03:18.713Z,988.65
2018-10-21T00:04:18.519Z,988.65
2018-10-21T00:05:18.546Z,988.66
2018-10-21T00:06:18.357Z,988.66
2018-10-21T00:07:18.355Z,988.67
2018-10-21T00:08:18.210Z,988.64
2018-10-21T00:09:18.203Z,988.63
2018-10-21T00:10:18.039Z,988.61
2018-10-21T00:11:17.959Z,988.62
2018-10-21T00:12:17.863Z,988.62
2018-10-21T00:13:17.795Z,988.61
2018-10-21T00:14:17.705Z,988.54
2018-10-21T00:15:17.680Z,988.60
2018-10-21T00:16:17.552Z,988.61
2018-10-21T00:17:17.467Z,988.56
2018-10-21T00:18:17.378Z,988.56
2018-10-21T00:19:17.307Z,988.54
2018-10-21T00:20:17.215Z,988.53
2018-10-21T00:21:17.174Z,988.57
2018-10-21T00:22:17.056Z,988.59
2018-10-21T00:23:16.977Z,988.58
2018-10-21T00:24:16.887Z,988.63
2018-10-21T00:25:16.812Z,988.59
2018-10-21T00:26:16.727Z,988.59
2018-10-21T00:27:16.739Z,988.57
2018-10-21T00:28:16.564Z,988.53
2018-10-21T00:29:16.486Z,988.52
2018-10-21T00:30:16.401Z,988.53
2018-10-21T00:31:16.332Z,988.48
2018-10-21T00:32:16.236Z,988.49
2018-10-21T00:33:16.250Z,988.45
2018-10-21T00:34:16.077Z,988.48
2018-10-21T00:35:16.003Z,988.49
2018-10-21T00:36:15.912Z,988.45
2018-10-21T00:37:15.839Z,988.49
2018-10-21T00:38:15.749Z,988.45
2018-10-21T00:39:15.742Z,988.47
2018-10-21T00:40:15.584Z,988.43
2018-10-21T00:41:15.510Z,988.45
2018-10-21T00:42:15.423Z,988.43
2018-10-21T00:43:15.348Z,988.48
2018-10-21T00:44:15.258Z,988.46
2018-10-21T00:45:15.272Z,988.43
2018-10-21T00:46:15.099Z,988.49
2018-10-21T00:47:15.024Z,988.49
2018-10-21T00:48:14.936Z,988.51
2018-10-21T00:49:14.865Z,988.49
2018-10-21T00:50:14.771Z,988.48
2018-10-21T00:51:14.752Z,988.50
2018-10-21T00:52:14.605Z,988.49
2018-10-21T00:53:14.534Z,988.47
2018-10-21T00:54:14.441Z,988.45
2018-10-21T00:55:14.375Z,988.41
2018-10-21T00:56:14.281Z,988.45
2018-10-21T00:57:14.289Z,988.43
2018-10-21T00:58:14.118Z,988.44
2018-10-21T00:59:14.050Z,988.43
2018-10-21T01:00:13.960Z,988.46
2018-10-21T01:01:13.883Z,988.50
2018-10-21T01:02:13.792Z,988.53
2018-10-21T01:03:13.776Z,988.56
2018-10-21T01:04:13.682Z,988.59
2018-10-21T01:05:13.549Z,988.59
2018-10-21T01:06:13.464Z,988.57
2018-10-21T01:07:13.389Z,988.56
2018-10-21T01:08:13.300Z,988.58
2018-10-21T01:09:13.309Z,988.54
2018-10-21T01:10:13.139Z,988.55
2018-10-21T01:11:13.066Z,988.52
2018-10-21T01:12:12.976Z,988.52
2018-10-21T01:13:12.901Z,988.54
2018-10-21T01:14:12.811Z,988.54
2018-10-21T01:15:12.807Z,988.55
2018-10-21T01:16:12.647Z,988.53
2018-10-21T01:17:12.580Z,988.56
2018-10-21T01:18:12.484Z,988.55
2018-10-21T01:19:12.412Z,988.54
2018-10-21T01:20:12.324Z,988.58
2018-10-21T01:21:12.276Z,988.55
2018-10-21T01:22:12.158Z,988.56
2018-10-21T01:23:12.086Z,988.52
2018-10-21T01:24:11.993Z,988.52
2018-10-21T01:25:11.929Z,988.53
2018-10-21T01:26:11.827Z,988.52
2018-10-21T01:27:11.799Z,988.50
2018-10-21T01:28:11.667Z,988.50
2018-10-21T01:29:11.590Z,988.53
2018-10-21T01:30:11.508Z,988.53
2018-10-21T01:31:11.430Z,988.52
2018-10-21T01:32:11.341Z,988.51
2018-10-21T01:33:11.277Z,988.54
2018-10-21T01:34:11.176Z,988.50
2018-10-21T01:35:11.103Z,988.49
2018-10-21T01:36:11.112Z,988.51
2018-10-21T01:37:11.001Z,988.51
2018-10-21T01:38:10.878Z,988.48
2018-10-21T01:39:10.841Z,988.47
2018-10-21T01:40:10.688Z,988.47
2018-10-21T01:41:10.612Z,988.47
2018-10-21T01:42:10.523Z,988.49
2018-10-21T01:43:10.451Z,988.47
2018-10-21T01:44:10.359Z,988.48
2018-10-21T01:45:10.388Z,988.46
2018-10-21T01:46:10.195Z,988.45
2018-10-21T01:47:10.122Z,988.41
2018-10-21T01:48:10.034Z,988.40
2018-10-21T01:49:09.959Z,988.41
2018-10-21T01:50:09.868Z,988.42
2018-10-21T01:51:09.853Z,988.43
2018-10-21T01:52:09.704Z,988.44
2018-10-21T01:53:09.628Z,988.39
2018-10-21T01:54:09.543Z,988.41
2018-10-21T01:55:09.464Z,988.43
2018-10-21T01:56:09.381Z,988.45
2018-10-21T01:57:09.399Z,988.43
2018-10-21T01:58:09.218Z,988.41
2018-10-21T01:59:09.143Z,988.36
2018-10-21T02:00:09.052Z,988.38
2018-10-21T02:01:08.978Z,988.35
2018-10-21T02:02:08.889Z,988.32
2018-10-21T02:03:08.854Z,988.32
2018-10-21T02:04:08.723Z,988.31
2018-10-21T02:05:08.661Z,988.36
2018-10-21T02:06:08.566Z,988.30
2018-10-21T02:07:08.484Z,988.31
2018-10-21T02:08:08.398Z,988.28
2018-10-21T02:09:08.387Z,988.29
2018-10-21T02:10:08.234Z,988.26
2018-10-21T02:11:08.161Z,988.23
2018-10-21T02:12:08.068Z,988.21
2018-10-21T02:13:08.015Z,988.22
2018-10-21T02:14:07.932Z,988.21
2018-10-21T02:15:07.850Z,988.23
2018-10-21T02:16:07.744Z,988.28
2018-10-21T02:17:07.682Z,988.29
2018-10-21T02:18:07.592Z,988.28
2018-10-21T02:19:07.511Z,988.30
2018-10-21T02:20:07.421Z,988.28
2018-10-21T02:21:07.354Z,988.23
2018-10-21T02:22:07.254Z,988.31
2018-10-21T02:23:07.185Z,988.31
2018-10-21T02:24:07.096Z,988.32
2018-10-21T02:25:07.017Z,988.34
2018-10-21T02:26:06.961Z,988.34
2018-10-21T02:27:06.886Z,988.30
2018-10-21T02:28:06.802Z,988.31
2018-10-21T02:29:06.694Z,988.32
2018-10-21T02:30:06.608Z,988.35
2018-10-21T02:31:06.531Z,988.35
2018-10-21T02:32:06.443Z,988.34
2018-10-21T02:33:06.457Z,988.33
2018-10-21T02:34:06.274Z,988.38
2018-10-21T02:35:06.210Z,988.40
2018-10-21T02:36:06.115Z,988.38
2018-10-21T02:37:06.043Z,988.36
2018-10-21T02:38:05.950Z,988.36
2018-10-21T02:39:05.896Z,988.34
2018-10-21T02:40:05.791Z,988.31
2018-10-21T02:41:05.717Z,988.34
2018-10-21T02:42:05.627Z,988.34
2018-10-21T02:43:05.551Z,988.35
2018-10-21T02:44:05.461Z,988.34
2018-10-21T02:45:05.416Z,988.39
2018-10-21T02:46:05.300Z,988.36
2018-10-21T02:47:05.228Z,988.36
2018-10-21T02:48:05.133Z,988.38
2018-10-21T02:49:05.063Z,988.40
2018-10-21T02:50:04.977Z,988.39
2018-10-21T02:51:04.916Z,988.39
2018-10-21T02:52:04.806Z,988.42
2018-10-21T02:53:04.737Z,988.44
2018-10-21T02:54:04.646Z,988.45
2018-10-21T02:55:04.575Z,988.46
2018-10-21T02:56:04.482Z,988.46
2018-10-21T02:57:04.478Z,988.49
2018-10-21T02:58:04.323Z,988.51
2018-10-21T02:59:04.251Z,988.55
2018-10-21T03:00:04.159Z,988.58
2018-10-21T03:01:04.087Z,988.62
2018-10-21T03:02:03.993Z,988.58
2018-10-21T03:03:03.929Z,988.58
2018-10-21T03:04:03.833Z,988.59
2018-10-21T03:05:03.759Z,988.58
2018-10-21T03:06:03.672Z,988.60
2018-10-21T03:07:03.599Z,988.59
2018-10-21T03:08:03.508Z,988.62
2018-10-21T03:09:03.473Z,988.66
2018-10-21T03:10:03.348Z,988.64
2018-10-21T03:11:03.273Z,988.62
2018-10-21T03:12:03.185Z,988.62
2018-10-21T03:13:03.111Z,988.62
2018-10-21T03:14:03.022Z,988.69
2018-10-21T03:15:03.013Z,988.67
2018-10-21T03:16:02.861Z,988.68
2018-10-21T03:17:02.795Z,988.62
2018-10-21T03:18:02.697Z,988.64
2018-10-21T03:19:02.626Z,988.65
2018-10-21T03:20:02.534Z,988.63
2018-10-21T03:21:02.518Z,988.62
2018-10-21T03:22:02.373Z,988.62
2018-10-21T03:23:02.297Z,988.58
2018-10-21T03:24:02.230Z,988.61
2018-10-21T03:25:02.137Z,988.61
2018-10-21T03:26:02.049Z,988.62
2018-10-21T03:27:01.994Z,988.65
2018-10-21T03:28:01.886Z,988.66
2018-10-21T03:29:01.814Z,988.60
2018-10-21T03:30:01.726Z,988.60
2018-10-21T03:31:01.652Z,988.60
2018-10-21T03:32:01.556Z,988.62
2018-10-21T03:33:01.582Z,988.62
2018-10-21T03:34:01.509Z,988.64
2018-10-21T03:35:01.321Z,988.71
2018-10-21T03:36:01.243Z,988.69
2018-10-21T03:37:01.158Z,988.70
2018-10-21T03:38:01.077Z,988.62
2018-10-21T03:39:01.010Z,988.61
2018-10-21T03:40:00.928Z,988.63
2018-10-21T03:41:00.835Z,988.65
2018-10-21T03:42:00.747Z,988.66
2018-10-21T03:43:00.678Z,988.66
2018-10-21T03:44:00.588Z,988.65
2018-10-21T03:45:00.525Z,988.70
2018-10-21T03:46:00.524Z,988.73
2018-10-21T03:47:00.348Z,988.72
2018-10-21T03:48:00.261Z,988.72
2018-10-21T03:49:00.190Z,988.70
2018-10-21T03:50:00.098Z,988.72
2018-10-21T03:51:00.027Z,988.72
2018-10-21T03:51:59.946Z,988.72
2018-10-21T03:52:59.862Z,988.70
2018-10-21T03:53:59.774Z,988.72
2018-10-21T03:54:59.700Z,988.71
2018-10-21T03:55:59.614Z,988.71
2018-10-21T03:56:59.540Z,988.77
2018-10-21T03:57:59.455Z,988.76
2018-10-21T03:58:59.382Z,988.70
2018-10-21T03:59:59.285Z,988.67
2018-10-21T04:00:59.234Z,988.68
2018-10-21T04:01:59.127Z,988.67
2018-10-21T04:02:59.142Z,988.73
2018-10-21T04:03:59.048Z,988.68
2018-10-21T04:04:58.956Z,988.68
2018-10-21T04:05:58.799Z,988.69
2018-10-21T04:06:58.734Z,988.67
2018-10-21T04:07:58.639Z,988.66
2018-10-21T04:08:58.672Z,988.62
2018-10-21T04:09:58.500Z,988.61
2018-10-21T04:10:58.481Z,988.58
2018-10-21T04:11:58.313Z,988.59
2018-10-21T04:12:58.288Z,988.57
2018-10-21T04:13:58.158Z,988.54
2018-10-21T04:14:58.083Z,988.56
2018-10-21T04:15:58.001Z,988.52
2018-10-21T04:16:57.917Z,988.55
2018-10-21T04:17:57.825Z,988.53
2018-10-21T04:18:57.817Z,988.50
2018-10-21T04:19:57.666Z,988.51
2018-10-21T04:20:57.625Z,988.52
2018-10-21T04:21:57.531Z,988.50
2018-10-21T04:22:57.435Z,988.50
2018-10-21T04:23:57.342Z,988.47
2018-10-21T04:24:57.267Z,988.43
2018-10-21T04:25:57.181Z,988.42
2018-10-21T04:26:57.108Z,988.38
2018-10-21T04:27:57.051Z,988.33
2018-10-21T04:28:56.940Z,988.38
2018-10-21T04:29:56.857Z,988.37
2018-10-21T04:30:56.874Z,988.35
2018-10-21T04:31:56.693Z,988.36
2018-10-21T04:32:56.625Z,988.36
2018-10-21T04:33:56.629Z,988.33
2018-10-21T04:34:56.490Z,988.34
2018-10-21T04:35:56.416Z,988.32
2018-10-21T04:36:56.402Z,988.37
2018-10-21T04:37:56.208Z,988.35
2018-10-21T04:38:56.143Z,988.40
2018-10-21T04:39:56.083Z,988.36
2018-10-21T04:40:56.019Z,988.33
2018-10-21T04:41:55.885Z,988.31
2018-10-21T04:42:55.827Z,988.31
2018-10-21T04:43:55.724Z,988.33
2018-10-21T04:44:55.740Z,988.30
2018-10-21T04:45:55.607Z,988.34
2018-10-21T04:46:56.601Z,988.35
2018-10-21T04:47:55.399Z,988.36
2018-10-21T04:48:55.324Z,988.30
2018-10-21T04:49:55.235Z,988.28
2018-10-21T04:50:55.164Z,988.35
2018-10-21T04:51:55.121Z,988.33
2018-10-21T04:52:55.005Z,988.37
2018-10-21T04:53:54.930Z,988.35
2018-10-21T04:54:54.845Z,988.35
2018-10-21T04:55:54.749Z,988.37
2018-10-21T04:56:54.677Z,988.39
2018-10-21T04:57:54.592Z,988.39
2018-10-21T04:58:54.516Z,988.40
2018-10-21T04:59:54.428Z,988.39
2018-10-21T05:00:54.412Z,988.41
2018-10-21T05:01:54.266Z,988.39
2018-10-21T05:02:54.192Z,988.37
2018-10-21T05:03:54.126Z,988.42
2018-10-21T05:04:54.131Z,988.41
2018-10-21T05:05:53.938Z,988.39
2018-10-21T05:06:53.938Z,988.32
2018-10-21T05:07:53.775Z,988.33
2018-10-21T05:08:53.702Z,988.37
2018-10-21T05:09:53.619Z,988.38
2018-10-21T05:10:53.553Z,988.35
2018-10-21T05:11:53.455Z,988.34
2018-10-21T05:12:53.379Z,988.33
2018-10-21T05:13:53.291Z,988.32
2018-10-21T05:14:53.277Z,988.33
2018-10-21T05:15:53.126Z,988.34
2018-10-21T05:16:53.085Z,988.33
2018-10-21T05:17:52.965Z,988.33
2018-10-21T05:18:52.894Z,988.32
2018-10-21T05:19:52.802Z,988.34
2018-10-21T05:20:52.803Z,988.34
2018-10-21T05:21:52.638Z,988.31
2018-10-21T05:22:52.614Z,988.29
2018-10-21T05:23:52.481Z,988.31
2018-10-21T05:24:52.420Z,988.30
2018-10-21T05:25:52.312Z,988.37
2018-10-21T05:26:52.333Z,988.36
2018-10-21T05:27:52.160Z,988.37
2018-10-21T05:28:52.140Z,988.40
2018-10-21T05:29:51.990Z,988.38
2018-10-21T05:30:51.946Z,988.34
2018-10-21T05:31:51.827Z,988.34
2018-10-21T05:32:51.855Z,988.35
2018-10-21T05:33:51.663Z,988.35
2018-10-21T05:34:51.666Z,988.35
2018-10-21T05:35:51.501Z,988.34
2018-10-21T05:36:51.479Z,988.34
2018-10-21T05:37:51.387Z,988.34
2018-10-21T05:38:51.268Z,988.35
2018-10-21T05:39:51.184Z,988.34
2018-10-21T05:40:51.102Z,988.34
2018-10-21T05:41:51.013Z,988.30
2018-10-21T05:42:50.940Z,988.32
2018-10-21T05:43:50.852Z,988.36
2018-10-21T05:44:50.777Z,988.38
2018-10-21T05:45:50.687Z,988.40
2018-10-21T05:46:50.707Z,988.43
2018-10-21T05:47:50.524Z,988.44
2018-10-21T05:48:50.451Z,988.45
2018-10-21T05:49:50.361Z,988.44
2018-10-21T05:50:50.340Z,988.48
2018-10-21T05:51:50.201Z,988.50
2018-10-21T05:52:50.128Z,988.48
2018-10-21T05:53:50.031Z,988.48
2018-10-21T05:54:50.061Z,988.46
2018-10-21T05:55:49.873Z,988.44
2018-10-21T05:56:49.798Z,988.48
2018-10-21T05:57:49.713Z,988.49
2018-10-21T05:58:49.633Z,988.50
2018-10-21T05:59:49.543Z,988.46
2018-10-21T06:00:49.470Z,988.51
2018-10-21T06:01:49.383Z,988.51
2018-10-21T06:02:49.364Z,988.50
2018-10-21T06:03:49.220Z,988.48
2018-10-21T06:04:49.143Z,988.53
2018-10-21T06:05:49.049Z,988.53
2018-10-21T06:06:48.983Z,988.56
2018-10-21T06:07:48.893Z,988.57
2018-10-21T06:08:48.815Z,988.60
2018-10-21T06:09:48.727Z,988.61
2018-10-21T06:10:48.654Z,988.62
2018-10-21T06:11:48.566Z,988.64
2018-10-21T06:12:48.491Z,988.67
2018-10-21T06:13:48.402Z,988.67
2018-10-21T06:14:48.326Z,988.70
2018-10-21T06:15:48.297Z,988.76
2018-10-21T06:16:48.162Z,988.79
2018-10-21T06:17:48.078Z,988.75
2018-10-21T06:18:48.025Z,988.80
2018-10-21T06:19:47.970Z,988.80
2018-10-21T06:20:47.827Z,988.82
2018-10-21T06:21:47.783Z,988.86
2018-10-21T06:22:47.662Z,988.89
2018-10-21T06:23:47.759Z,988.87
2018-10-21T06:24:47.502Z,988.88
2018-10-21T06:25:47.425Z,988.88
2018-10-21T06:26:47.339Z,988.90
2018-10-21T06:27:47.373Z,988.92
2018-10-21T06:28:47.175Z,988.93
2018-10-21T06:29:47.121Z,988.95
2018-10-21T06:30:47.016Z,988.93
2018-10-21T06:31:47.033Z,988.95
2018-10-21T06:32:46.849Z,988.96
2018-10-21T06:33:46.878Z,988.99
2018-10-21T06:34:46.683Z,988.98
2018-10-21T06:35:46.657Z,989.00
2018-10-21T06:36:46.580Z,988.99
2018-10-21T06:37:46.457Z,989.01
2018-10-21T06:38:46.358Z,989.03
2018-10-21T06:39:46.369Z,989.03
2018-10-21T06:40:46.194Z,989.05
2018-10-21T06:41:46.177Z,989.07
2018-10-21T06:42:46.029Z,989.02
2018-10-21T06:43:45.982Z,989.05
2018-10-21T06:44:45.863Z,989.04
2018-10-21T06:45:45.955Z,989.01
2018-10-21T06:46:45.707Z,989.05
2018-10-21T06:47:45.706Z,989.01
2018-10-21T06:48:45.545Z,989.02
2018-10-21T06:49:45.514Z,989.01
2018-10-21T06:50:45.375Z,989.04
2018-10-21T06:51:45.323Z,989.12
2018-10-21T06:52:45.211Z,989.14
2018-10-21T06:53:45.238Z,989.13
2018-10-21T06:54:45.049Z,989.20
2018-10-21T06:55:45.041Z,989.21
2018-10-21T06:56:45.044Z,989.23
2018-10-21T06:57:44.922Z,989.22
2018-10-21T06:58:44.721Z,989.24
2018-10-21T06:59:44.656Z,989.25
2018-10-21T07:00:44.557Z,989.29
2018-10-21T07:01:44.570Z,989.27
2018-10-21T07:02:44.401Z,989.29
2018-10-21T07:03:44.379Z,989.29
2018-10-21T07:04:44.292Z,989.27
2018-10-21T07:05:44.186Z,989.29
2018-10-21T07:06:44.068Z,989.28
2018-10-21T07:07:44.100Z,989.32
2018-10-21T07:08:43.901Z,989.29
2018-10-21T07:09:43.907Z,989.32
2018-10-21T07:10:43.741Z,989.35
2018-10-21T07:11:43.715Z,989.33
2018-10-21T07:12:43.574Z,989.34
2018-10-21T07:13:43.521Z,989.35
2018-10-21T07:14:43.418Z,989.35
2018-10-21T07:15:43.538Z,989.34
2018-10-21T07:16:43.337Z,989.33
2018-10-21T07:17:43.242Z,989.32
2018-10-21T07:18:43.088Z,989.31
2018-10-21T07:19:43.053Z,989.29
2018-10-21T07:20:42.925Z,989.27
2018-10-21T07:21:42.964Z,989.28
2018-10-21T07:22:42.763Z,989.28
2018-10-21T07:23:42.769Z,989.29
2018-10-21T07:24:42.598Z,989.28
2018-10-21T07:25:42.580Z,989.31
2018-10-21T07:26:42.441Z,989.34
2018-10-21T07:27:42.387Z,989.33
2018-10-21T07:28:42.271Z,989.38
2018-10-21T07:29:42.298Z,989.37
2018-10-21T07:30:42.118Z,989.34
2018-10-21T07:31:42.116Z,989.36
2018-10-21T07:32:41.951Z,989.35
2018-10-21T07:33:41.924Z,989.34
2018-10-21T07:34:41.791Z,989.36
2018-10-21T07:35:41.826Z,989.35
2018-10-21T07:36:42.597Z,989.34
2018-10-21T07:37:41.632Z,989.35
2018-10-21T07:38:41.465Z,989.37
2018-10-21T07:39:41.448Z,989.35
2018-10-21T07:40:41.311Z,989.35
2018-10-21T07:41:41.252Z,989.39
2018-10-21T07:42:41.143Z,989.38
2018-10-21T07:43:41.160Z,989.40
2018-10-21T07:44:40.990Z,989.42
2018-10-21T07:45:40.972Z,989.39
2018-10-21T07:46:40.824Z,989.45
2018-10-21T07:47:40.899Z,989.46
2018-10-21T07:48:40.662Z,989.41
2018-10-21T07:49:40.696Z,989.45
2018-10-21T07:50:40.508Z,989.50
2018-10-21T07:51:40.501Z,989.50
2018-10-21T07:52:40.344Z,989.46
2018-10-21T07:53:40.307Z,989.47
2018-10-21T07:54:40.182Z,989.47
2018-10-21T07:55:40.145Z,989.48
2018-10-21T07:56:40.021Z,989.51
2018-10-21T07:57:40.028Z,989.51
2018-10-21T07:58:39.862Z,989.48
2018-10-21T07:59:39.836Z,989.53
2018-10-21T08:00:39.703Z,989.52
2018-10-21T08:01:39.644Z,989.52
2018-10-21T08:02:39.544Z,989.54
2018-10-21T08:03:39.557Z,989.54
2018-10-21T08:04:39.429Z,989.55
2018-10-21T08:05:39.366Z,989.53
2018-10-21T08:06:39.228Z,989.48
2018-10-21T08:07:39.178Z,989.49
2018-10-21T08:08:39.120Z,989.53
2018-10-21T08:09:39.087Z,989.48
2018-10-21T08:10:38.905Z,989.50
2018-10-21T08:11:43.704Z,989.48
2018-10-21T08:12:38.748Z,989.50
2018-10-21T08:13:43.719Z,989.49
2018-10-21T08:14:38.600Z,989.51
2018-10-21T08:15:39.535Z,989.50
2018-10-21T08:16:38.432Z,989.52
2018-10-21T08:17:38.419Z,989.53
2018-10-21T08:18:38.277Z,989.52
2018-10-21T08:19:38.230Z,989.51
2018-10-21T08:20:38.113Z,989.48
2018-10-21T08:21:38.149Z,989.49
2018-10-21T08:22:37.960Z,989.47
2018-10-21T08:23:37.950Z,989.48
2018-10-21T08:24:37.800Z,989.48
2018-10-21T08:25:37.758Z,989.48
2018-10-21T08:26:37.641Z,989.46
2018-10-21T08:27:37.670Z,989.45
2018-10-21T08:28:37.486Z,989.45
2018-10-21T08:29:37.481Z,989.45
2018-10-21T08:30:38.162Z,989.46
2018-10-21T08:31:37.287Z,989.47
2018-10-21T08:32:37.172Z,989.49
2018-10-21T08:33:37.199Z,989.48
2018-10-21T08:34:37.015Z,989.48
2018-10-21T08:35:37.005Z,989.46
2018-10-21T08:36:36.859Z,989.45
2018-10-21T08:37:36.815Z,989.46
2018-10-21T08:38:36.703Z,989.40
2018-10-21T08:39:36.724Z,989.41
2018-10-21T08:40:36.545Z,989.44
2018-10-21T08:41:36.539Z,989.40
2018-10-21T08:42:36.392Z,989.43
2018-10-21T08:43:36.340Z,989.43
2018-10-21T08:44:36.233Z,989.41
2018-10-21T08:45:36.254Z,989.44
2018-10-21T08:46:36.137Z,989.47
2018-10-21T08:47:36.068Z,989.48
2018-10-21T08:48:35.922Z,989.47
2018-10-21T08:49:35.868Z,989.47
2018-10-21T08:50:35.771Z,989.49
2018-10-21T08:51:35.781Z,989.47
2018-10-21T08:52:35.610Z,989.47
2018-10-21T08:53:35.591Z,989.44
2018-10-21T08:54:35.456Z,989.48
2018-10-21T08:55:35.398Z,989.43
2018-10-21T08:56:35.302Z,989.44
2018-10-21T08:57:35.303Z,989.46
2018-10-21T08:58:35.148Z,989.45
2018-10-21T08:59:35.123Z,989.43
2018-10-21T09:00:34.996Z,989.40
2018-10-21T09:01:35.033Z,989.41
2018-10-21T09:02:34.836Z,989.40
2018-10-21T09:03:34.836Z,989.41
2018-10-21T09:04:34.681Z,989.40
2018-10-21T09:05:34.644Z,989.36
2018-10-21T09:06:34.528Z,989.38
2018-10-21T09:07:34.556Z,989.36
2018-10-21T09:08:34.369Z,989.37
2018-10-21T09:09:34.364Z,989.38
2018-10-21T09:10:34.279Z,989.34
2018-10-21T09:11:34.172Z,989.36
2018-10-21T09:12:34.064Z,989.33
2018-10-21T09:13:34.082Z,989.33
2018-10-21T09:14:33.908Z,989.27
2018-10-21T09:15:33.966Z,989.29
2018-10-21T09:16:33.774Z,989.28
2018-10-21T09:17:33.701Z,989.31
2018-10-21T09:18:33.604Z,989.31
2018-10-21T09:19:33.611Z,989.29
2018-10-21T09:20:33.451Z,989.25
2018-10-21T09:21:33.418Z,989.26
2018-10-21T09:22:33.300Z,989.22
2018-10-21T09:23:33.342Z,989.27
2018-10-21T09:24:33.143Z,989.24
2018-10-21T09:25:33.138Z,989.21
2018-10-21T09:26:32.991Z,989.22
2018-10-21T09:27:32.946Z,989.21
2018-10-21T09:28:32.836Z,989.18
2018-10-21T09:29:32.855Z,989.22
2018-10-21T09:30:32.685Z,989.23
2018-10-21T09:31:32.668Z,989.23
2018-10-21T09:32:32.530Z,989.28
2018-10-21T09:33:32.481Z,989.25
2018-10-21T09:34:32.381Z,989.24
2018-10-21T09:35:32.405Z,989.24
2018-10-21T09:36:32.228Z,989.25
2018-10-21T09:37:32.196Z,989.23
2018-10-21T09:38:32.076Z,989.24
2018-10-21T09:39:32.104Z,989.24
2018-10-21T09:40:31.926Z,989.25
2018-10-21T09:41:31.919Z,989.24
2018-10-21T09:42:31.774Z,989.24
2018-10-21T09:43:31.725Z,989.24
2018-10-21T09:44:31.623Z,989.28
2018-10-21T09:45:31.638Z,989.27
2018-10-21T09:46:31.541Z,989.26
2018-10-21T09:47:31.441Z,989.29
2018-10-21T09:48:31.312Z,989.27
2018-10-21T09:49:31.358Z,989.27
2018-10-21T09:50:31.163Z,989.28
2018-10-21T09:51:31.163Z,989.23
2018-10-21T09:52:31.013Z,989.22
2018-10-21T09:53:30.974Z,989.20
2018-10-21T09:54:30.862Z,989.23
2018-10-21T09:55:30.884Z,989.27
2018-10-21T09:56:30.706Z,989.23
2018-10-21T09:57:30.697Z,989.20
2018-10-21T09:58:30.587Z,989.19
2018-10-21T09:59:30.501Z,989.23
2018-10-21T10:00:30.406Z,989.21
2018-10-21T10:01:30.410Z,989.18
2018-10-21T10:02:30.301Z,989.23
2018-10-21T10:03:30.215Z,989.22
2018-10-21T10:04:30.107Z,989.27
2018-10-21T10:05:30.130Z,989.28
2018-10-21T10:06:29.957Z,989.28
2018-10-21T10:07:29.938Z,989.26
2018-10-21T10:08:29.808Z,989.25
2018-10-21T10:09:29.748Z,989.24
2018-10-21T10:10:29.653Z,989.22
2018-10-21T10:11:29.660Z,989.23
2018-10-21T10:12:29.506Z,989.19
2018-10-21T10:13:29.472Z,989.21
2018-10-21T10:14:29.351Z,989.19
2018-10-21T10:15:29.377Z,989.21
2018-10-21T10:16:29.199Z,989.15
2018-10-21T10:17:29.210Z,989.19
2018-10-21T10:18:29.046Z,989.17
2018-10-21T10:19:28.996Z,989.14
2018-10-21T10:20:28.898Z,989.10
2018-10-21T10:21:28.906Z,989.15
2018-10-21T10:22:28.752Z,989.14
2018-10-21T10:23:28.775Z,989.13
2018-10-21T10:24:28.602Z,989.09
2018-10-21T10:25:28.626Z,989.12
2018-10-21T10:26:28.450Z,989.07
2018-10-21T10:27:28.435Z,989.08
2018-10-21T10:28:28.296Z,989.06
2018-10-21T10:29:28.358Z,989.03
2018-10-21T10:30:28.190Z,989.02
2018-10-21T10:31:28.154Z,989.02
2018-10-21T10:32:28.000Z,988.98
2018-10-21T10:33:27.962Z,988.97
2018-10-21T10:34:27.848Z,988.98
2018-10-21T10:35:27.874Z,989.00
2018-10-21T10:36:27.703Z,988.95
2018-10-21T10:37:27.682Z,988.98
2018-10-21T10:38:27.546Z,988.95
2018-10-21T10:39:27.491Z,988.97
2018-10-21T10:40:27.398Z,988.92
2018-10-21T10:41:27.395Z,988.96
2018-10-21T10:42:27.248Z,988.93
2018-10-21T10:43:27.238Z,988.89
2018-10-21T10:44:27.096Z,988.86
2018-10-21T10:45:27.120Z,988.86
2018-10-21T10:46:26.949Z,988.88
2018-10-21T10:47:26.932Z,988.83
2018-10-21T10:48:26.805Z,988.79
2018-10-21T10:49:26.842Z,988.83
2018-10-21T10:50:26.649Z,988.81
2018-10-21T10:51:26.648Z,988.82
2018-10-21T10:52:26.499Z,988.77
2018-10-21T10:53:26.459Z,988.73
2018-10-21T10:54:26.357Z,988.69
2018-10-21T10:55:26.367Z,988.65
2018-10-21T10:56:26.203Z,988.63
2018-10-21T10:57:26.177Z,988.62
2018-10-21T10:58:26.052Z,988.61
2018-10-21T10:59:26.105Z,988.58
2018-10-21T11:00:25.903Z,988.60
2018-10-21T11:01:25.896Z,988.57
2018-10-21T11:02:25.756Z,988.55
2018-10-21T11:03:25.706Z,988.59
2018-10-21T11:04:25.611Z,988.55
2018-10-21T11:05:25.615Z,988.51
2018-10-21T11:06:25.542Z,988.58
2018-10-21T11:07:25.424Z,988.50
2018-10-21T11:08:25.305Z,988.46
2018-10-21T11:09:25.334Z,988.49
2018-10-21T11:10:25.158Z,988.48
2018-10-21T11:11:25.147Z,988.42
2018-10-21T11:12:25.012Z,988.44
2018-10-21T11:13:24.933Z,988.49
2018-10-21T11:14:24.860Z,988.50
2018-10-21T11:15:24.864Z,988.43
2018-10-21T11:16:24.712Z,988.45
2018-10-21T11:17:24.676Z,988.46
2018-10-21T11:18:24.563Z,988.42
2018-10-21T11:19:24.587Z,988.41
2018-10-21T11:20:24.410Z,988.40
2018-10-21T11:21:24.393Z,988.37
2018-10-21T11:22:24.379Z,988.36
2018-10-21T11:23:24.301Z,988.36
2018-10-21T11:24:24.119Z,988.28
2018-10-21T11:25:24.115Z,988.28
2018-10-21T11:26:23.969Z,988.25
2018-10-21T11:27:23.921Z,988.26
2018-10-21T11:28:23.819Z,988.26
2018-10-21T11:29:23.837Z,988.27
2018-10-21T11:30:23.672Z,988.28
2018-10-21T11:31:23.644Z,988.26
2018-10-21T11:32:23.519Z,988.26
2018-10-21T11:33:23.553Z,988.27
2018-10-21T11:34:23.374Z,988.29
2018-10-21T11:35:23.361Z,988.25
2018-10-21T11:36:23.225Z,988.30
2018-10-21T11:37:23.215Z,988.29
2018-10-21T11:38:23.076Z,988.28
2018-10-21T11:39:23.077Z,988.23
2018-10-21T11:40:22.924Z,988.22
2018-10-21T11:41:22.891Z,988.21
2018-10-21T11:42:22.777Z,988.20
2018-10-21T11:43:22.803Z,988.23
2018-10-21T11:44:22.630Z,988.23
2018-10-21T11:45:22.610Z,988.22
2018-10-21T11:46:22.503Z,988.20
2018-10-21T11:47:22.518Z,988.19
2018-10-21T11:48:22.335Z,988.17
2018-10-21T11:49:22.330Z,988.18
2018-10-21T11:50:22.189Z,988.16
2018-10-21T11:51:22.144Z,988.16
2018-10-21T11:52:22.047Z,988.17
2018-10-21T11:53:22.047Z,988.18
2018-10-21T11:54:21.889Z,988.18
2018-10-21T11:55:21.854Z,988.19
2018-10-21T11:56:21.742Z,988.16
2018-10-21T11:57:21.765Z,988.19
2018-10-21T11:58:21.592Z,988.19
2018-10-21T11:59:21.582Z,988.14
2018-10-21T12:00:21.441Z,988.15
2018-10-21T12:01:21.481Z,988.14
2018-10-21T12:02:21.310Z,988.13
2018-10-21T12:03:21.299Z,988.11
2018-10-21T12:04:21.147Z,988.08
2018-10-21T12:05:21.103Z,988.13
2018-10-21T12:06:21.002Z,988.13
2018-10-21T12:07:21.016Z,988.14
2018-10-21T12:08:20.849Z,988.07
2018-10-21T12:09:20.824Z,988.09
2018-10-21T12:10:20.703Z,988.08
2018-10-21T12:11:20.732Z,988.10
2018-10-21T12:12:20.554Z,988.11
2018-10-21T12:13:20.542Z,988.11
2018-10-21T12:14:20.405Z,988.10
2018-10-21T12:15:20.329Z,988.09
2018-10-21T12:16:20.280Z,988.06
2018-10-21T12:17:20.179Z,988.10
2018-10-21T12:18:20.110Z,988.06
2018-10-21T12:19:20.031Z,988.08
2018-10-21T12:20:19.974Z,988.09
2018-10-21T12:21:19.881Z,988.07
2018-10-21T12:22:19.993Z,988.04
2018-10-21T12:23:19.770Z,988.05
2018-10-21T12:24:19.695Z,988.04
2018-10-21T12:25:19.714Z,988.02
2018-10-21T12:26:19.523Z,988.02
2018-10-21T12:27:19.436Z,988.01